Main page
METAR-TAF:

METAR-TAF

Airports :

Győr-Pér International Airport

Győr, Hungary

latitude: 47-37-28N, longitude: 017-48-49E, elevation: 129 m

Current weather observation

The report was made 29 minutes ago, at 23:15 UTC
Calm wind
Temperature 16°C
Humidity 94%
Pressure 1012 hPa
Visibility 10 km or more
no clouds below 1500 m and no cumulonimbus

METAR: LHPR 202315Z AUTO 00000KT CAVOK 16/15 Q1012 RMK BLU

Time: 01:44 (23:44 UTC)

Forecast

The report was made 6 hours and 29 minutes ago, at 17:15 UTC
Forecast valid from 20 at 18 UTC to 21 at 03 UTC
Wind 8 kt from the North/Northwest
Visibility 10 km or more
no clouds below 1500 m and no cumulonimbus
Becoming
from 20 at 19 UTC to 20 at 22 UTC
Wind 2 kt from variable directions

TAF: LHPR 201715Z 2018/2103 34008KT CAVOK BECMG 2019/2022 VRB02KT

Weather observations and forecasts of more than 4000 airports (METAR and TAF reports).

The available stations are represented by yellow and red dots on the map.

Hover mouse over dot to see the name of the station.

Then click to see weather observations and forecasts.

To change the map : click on the green buttons with a black cross to zoom in, on the green button with a dash to zoom out, or on the green arrows for adjacent maps.


METAR-TAF: